Time;durP1;ratioP1;P1;durP2;ratioP2;P2;SDS_P1;SDS_P2;PMS_P1;PMS_P2;Temp;Humidity;BMP_temperature;BMP_pressure;BME280_temperature;BME280_humidity;BME280_pressure;Samples;Min_cycle;Max_cycle;Signal;HPM_P1;HPM_P2
2023/08/02 00:01:16;;;;;;;;;;;;;;;;;;5014986;28;20016;-91
2023/08/02 00:03:42;;;;;;;;;;;;;;;;;;4998237;28;20373;-92
2023/08/02 00:06:08;;;;;;;;;;;;;;;;;;4998418;28;19929;-92
2023/08/02 00:08:35;;;;;;;;;;;;;;;;;;4998842;28;19932;-92
2023/08/02 00:11:02;;;;;;;;;;;;;;;;;;5016000;28;20321;-93
2023/08/02 00:13:28;;;;;;;;;;;;;;;;;;5014638;28;19929;-92
2023/08/02 00:15:54;;;;;;;;;;;;;;;;;;5014470;28;20230;-92
2023/08/02 00:18:20;;;;;;;;;;;;;;;;;;4998314;28;19925;-92
2023/08/02 00:20:47;;;;;;;;;;;;;;;;;;5014524;28;19921;-92
2023/08/02 00:23:13;;;;;;;;;;;;;;;;;;5014383;28;19922;-92
2023/08/02 00:25:39;;;;;;;;;;;;;;;;;;5014223;28;19929;-93
2023/08/02 00:28:05;;;;;;;;;;;;;;;;;;4998073;28;19949;-93
2023/08/02 00:30:31;;;;;;;;;;;;;;;;;;4997726;28;19929;-91
2023/08/02 00:32:57;;;;;;;;;;;;;;;;;;4997937;28;19959;-94
2023/08/02 00:35:23;;;;;;;;;;;;;;;;;;5015693;28;19922;-94
2023/08/02 00:37:49;;;;;;;;;;;;;;;;;;4998289;28;19976;-93
2023/08/02 00:40:15;;;;;;;;;;;;;;;;;;5014278;28;20343;-94
2023/08/02 00:42:41;;;;;;;;;;;;;;;;;;4997864;28;19936;-95
2023/08/02 00:45:07;;;;;;;;;;;;;;;;;;4998010;28;19921;-94
2023/08/02 00:47:33;;;;;;;;;;;;;;;;;;4997356;28;20266;-93
2023/08/02 00:49:59;;;;;;;;;;;;;;;;;;5014230;28;19926;-94
2023/08/02 00:52:25;;;;;;;;;;;;;;;;;;4997694;28;19921;-94
2023/08/02 00:54:51;;;;;;;;;;;;;;;;;;4997852;28;19975;-93
2023/08/02 00:57:17;;;;;;;;;;;;;;;;;;4997608;28;20433;-93
2023/08/02 00:59:43;;;;;;;;;;;;;;;;;;5013891;28;20366;-94
2023/08/02 01:02:09;;;;;;;;;;;;;;;;;;4997404;28;19945;-93
2023/08/02 01:04:35;;;;;;;;;;;;;;;;;;5014155;28;19933;-93
2023/08/02 01:07:00;;;;;;;;;;;;;;;;;;5013566;28;20237;-92
2023/08/02 01:09:26;;;;;;;;;;;;;;;;;;5013629;28;19986;-92
2023/08/02 01:11:52;;;;;;;;;;;;;;;;;;5013737;28;20383;-92
2023/08/02 01:14:18;;;;;;;;;;;;;;;;;;5013525;28;20060;-92
2023/08/02 01:16:44;;;;;;;;;;;;;;;;;;4997142;28;20270;-92
2023/08/02 01:19:10;;;;;;;;;;;;;;;;;;5014860;28;19976;-92
2023/08/02 01:21:36;;;;;;;;;;;;;;;;;;4996975;28;19929;-90
2023/08/02 01:24:02;;;;;;;;;;;;;;;;;;5013187;28;19922;-91
2023/08/02 01:26:28;;;;;;;;;;;;;;;;;;5014254;28;19925;-91
2023/08/02 01:28:55;;;;;;;;;;;;;;;;;;5013035;28;19932;-91
2023/08/02 01:31:20;;;;;;;;;;;;;;;;;;4996794;28;19922;-92
2023/08/02 01:33:47;;;;;;;;;;;;;;;;;;4996439;28;19943;-91
2023/08/02 01:36:13;;;;;;;;;;;;;;;;;;5014178;28;19941;-91
2023/08/02 01:38:38;;;;;;;;;;;;;;;;;;4996761;28;19937;-91
2023/08/02 01:41:04;;;;;;;;;;;;;;;;;;4996037;28;20385;-91
2023/08/02 01:43:30;;;;;;;;;;;;;;;;;;5013265;28;19930;-92
2023/08/02 01:45:56;;;;;;;;;;;;;;;;;;5014183;28;19967;-94
2023/08/02 01:48:22;;;;;;;;;;;;;;;;;;5013581;28;19925;-93
2023/08/02 01:50:49;;;;;;;;;;;;;;;;;;4997395;28;19936;-94
2023/08/02 01:53:15;;;;;;;;;;;;;;;;;;4999827;28;20293;-94
2023/08/02 01:55:41;;;;;;;;;;;;;;;;;;5015665;28;19925;-94
2023/08/02 01:58:07;;;;;;;;;;;;;;;;;;4997703;28;20338;-94
2023/08/02 02:00:32;;;;;;;;;;;;;;;;;;4996981;28;19960;-93
2023/08/02 02:02:58;;;;;;;;;;;;;;;;;;5012877;28;19921;-93
2023/08/02 02:05:24;;;;;;;;;;;;;;;;;;5012762;28;19952;-93
2023/08/02 02:07:50;;;;;;;;;;;;;;;;;;5012980;28;19983;-94
2023/08/02 02:10:16;;;;;;;;;;;;;;;;;;5013457;28;19921;-95
2023/08/02 02:12:42;;;;;;;;;;;;;;;;;;4996762;28;20441;-93
2023/08/02 02:15:08;;;;;;;;;;;;;;;;;;4996431;28;20277;-93
2023/08/02 02:17:34;;;;;;;;;;;;;;;;;;4996252;28;20261;-92
2023/08/02 02:20:03;;;;;;;;;;;;;;;;;;5012614;28;19972;-92
2023/08/02 02:22:29;;;;;;;;;;;;;;;;;;4996039;28;19972;-91
2023/08/02 02:24:55;;;;;;;;;;;;;;;;;;4996180;28;19921;-91
2023/08/02 02:27:21;;;;;;;;;;;;;;;;;;4996003;28;19933;-93
2023/08/02 02:29:46;;;;;;;;;;;;;;;;;;5013323;28;19926;-90
2023/08/02 02:32:12;;;;;;;;;;;;;;;;;;4995782;28;20392;-91
2023/08/02 02:34:38;;;;;;;;;;;;;;;;;;5012115;28;19928;-92
2023/08/02 02:37:04;;;;;;;;;;;;;;;;;;4995524;28;20032;-92
2023/08/02 02:39:30;;;;;;;;;;;;;;;;;;4995612;28;19949;-92
2023/08/02 02:41:56;;;;;;;;;;;;;;;;;;5012081;28;19932;-92
2023/08/02 02:44:22;;;;;;;;;;;;;;;;;;4995677;28;19922;-91
2023/08/02 02:46:48;;;;;;;;;;;;;;;;;;5011560;28;20301;-92
2023/08/02 02:49:14;;;;;;;;;;;;;;;;;;5012038;28;19994;-92
2023/08/02 02:51:40;;;;;;;;;;;;;;;;;;4995509;28;19928;-91
2023/08/02 02:54:06;;;;;;;;;;;;;;;;;;5011406;28;19928;-92
2023/08/02 02:56:32;;;;;;;;;;;;;;;;;;4995300;28;19922;-91
2023/08/02 02:58:58;;;;;;;;;;;;;;;;;;5012245;28;20414;-92
2023/08/02 03:01:23;;;;;;;;;;;;;;;;;;4996009;28;19987;-91
2023/08/02 03:03:49;;;;;;;;;;;;;;;;;;4995763;28;19922;-93
2023/08/02 03:06:15;;;;;;;;;;;;;;;;;;5013160;28;20341;-92
2023/08/02 03:08:41;;;;;;;;;;;;;;;;;;4995501;28;19929;-92
2023/08/02 03:11:07;;;;;;;;;;;;;;;;;;5012770;28;20326;-92
2023/08/02 03:13:33;;;;;;;;;;;;;;;;;;4995751;28;20231;-92
2023/08/02 03:15:59;;;;;;;;;;;;;;;;;;5011796;28;20012;-92
2023/08/02 03:18:25;;;;;;;;;;;;;;;;;;4995777;28;19921;-93
2023/08/02 03:20:51;;;;;;;;;;;;;;;;;;5012228;28;20293;-92
2023/08/02 03:23:17;;;;;;;;;;;;;;;;;;5013080;28;19989;-92
2023/08/02 03:25:43;;;;;;;;;;;;;;;;;;5012053;28;19929;-92
2023/08/02 03:28:09;;;;;;;;;;;;;;;;;;5011550;28;19952;-92
2023/08/02 03:30:34;;;;;;;;;;;;;;;;;;5012208;28;20032;-92
2023/08/02 03:33:00;;;;;;;;;;;;;;;;;;4995555;28;20362;-91
2023/08/02 03:35:26;;;;;;;;;;;;;;;;;;5012339;28;19983;-93
2023/08/02 03:37:52;;;;;;;;;;;;;;;;;;5011502;28;20000;-94
2023/08/02 03:40:19;;;;;;;;;;;;;;;;;;4995428;28;20069;-93
2023/08/02 03:42:45;;;;;;;;;;;;;;;;;;5011912;28;19942;-92
2023/08/02 03:45:11;;;;;;;;;;;;;;;;;;4995731;28;20388;-94
2023/08/02 03:47:37;;;;;;;;;;;;;;;;;;5012017;28;20029;-93
2023/08/02 03:50:03;;;;;;;;;;;;;;;;;;4995588;28;19935;-95
2023/08/02 03:52:29;;;;;;;;;;;;;;;;;;4996579;28;19996;-95
2023/08/02 03:54:58;;;;;;;;;;;;;;;;;;5011928;28;20329;-93
2023/08/02 03:57:24;;;;;;;;;;;;;;;;;;4995146;28;20016;-92
2023/08/02 03:59:50;;;;;;;;;;;;;;;;;;5013265;28;19968;-92
2023/08/02 04:02:16;;;;;;;;;;;;;;;;;;5011895;28;19972;-93
2023/08/02 04:04:43;;;;;;;;;;;;;;;;;;5011196;28;22865;-94
2023/08/02 04:07:09;;;;;;;;;;;;;;;;;;5013303;28;20019;-93
2023/08/02 04:09:35;;;;;;;;;;;;;;;;;;5016632;28;20000;-93
2023/08/02 04:12:01;;;;;;;;;;;;;;;;;;4999351;28;20326;-94
2023/08/02 04:14:27;;;;;;;;;;;;;;;;;;4998889;28;19968;-92
2023/08/02 04:16:53;;;;;;;;;;;;;;;;;;4998545;28;19927;-92
2023/08/02 04:19:19;;;;;;;;;;;;;;;;;;5015083;28;19921;-93
2023/08/02 04:21:45;;;;;;;;;;;;;;;;;;4998845;28;20277;-92
2023/08/02 04:24:11;;;;;;;;;;;;;;;;;;4998570;28;19925;-93
2023/08/02 04:26:37;;;;;;;;;;;;;;;;;;4998838;28;20492;-92
2023/08/02 04:29:03;;;;;;;;;;;;;;;;;;4998557;28;19964;-93
2023/08/02 04:31:31;;;;;;;;;;;;;;;;;;4998174;28;19921;-93
2023/08/02 04:33:57;;;;;;;;;;;;;;;;;;4998304;28;19921;-93
2023/08/02 04:36:23;;;;;;;;;;;;;;;;;;5014463;28;19921;-94
2023/08/02 04:38:49;;;;;;;;;;;;;;;;;;5015044;28;20366;-92
2023/08/02 04:41:15;;;;;;;;;;;;;;;;;;5015689;28;19926;-95
2023/08/02 04:43:41;;;;;;;;;;;;;;;;;;4998696;28;19983;-94
2023/08/02 04:46:07;;;;;;;;;;;;;;;;;;4998352;28;19926;-94
2023/08/02 04:48:33;;;;;;;;;;;;;;;;;;4998063;28;19928;-93
2023/08/02 04:50:59;;;;;;;;;;;;;;;;;;4998123;28;20060;-90
2023/08/02 04:53:25;;;;;;;;;;;;;;;;;;4997870;28;19964;-92
2023/08/02 04:55:53;;;;;;;;;;;;;;;;;;5014502;28;19925;-96
2023/08/02 04:58:19;;;;;;;;;;;;;;;;;;4998159;28;19925;-93
2023/08/02 05:00:45;;;;;;;;;;;;;;;;;;5014811;28;19944;-93
2023/08/02 05:03:11;;;;;;;;;;;;;;;;;;5014633;28;19967;-94
2023/08/02 05:05:37;;;;;;;;;;;;;;;;;;5014033;28;19921;-94
2023/08/02 05:08:03;;;;;;;;;;;;;;;;;;5014074;28;20018;-93
2023/08/02 05:10:29;;;;;;;;;;;;;;;;;;5013887;28;19921;-93
2023/08/02 05:12:55;;;;;;;;;;;;;;;;;;5014172;28;19922;-93
2023/08/02 05:15:21;;;;;;;;;;;;;;;;;;4997475;28;19933;-94
2023/08/02 05:17:47;;;;;;;;;;;;;;;;;;5013845;28;19928;-93
2023/08/02 05:20:13;;;;;;;;;;;;;;;;;;4997495;28;19925;-93
2023/08/02 05:22:39;;;;;;;;;;;;;;;;;;4997320;28;19936;-92
2023/08/02 05:25:05;;;;;;;;;;;;;;;;;;4997353;28;19922;-92
2023/08/02 05:27:31;;;;;;;;;;;;;;;;;;4997228;28;19929;-93
2023/08/02 05:29:58;;;;;;;;;;;;;;;;;;4997328;28;19921;-93
2023/08/02 05:32:24;;;;;;;;;;;;;;;;;;4997001;28;19929;-90
2023/08/02 05:34:50;;;;;;;;;;;;;;;;;;5014468;28;19921;-91
2023/08/02 05:37:17;;;;;;;;;;;;;;;;;;5014123;28;19928;-91
2023/08/02 05:39:43;;;;;;;;;;;;;;;;;;4996401;28;19925;-91
2023/08/02 05:42:08;;;;;;;;;;;;;;;;;;5014277;28;19929;-88
2023/08/02 05:44:36;;;;;;;;;;;;;;;;;;5014344;28;19937;-92
2023/08/02 05:47:05;;;;;;;;;;;;;;;;;;5015195;28;19968;-91
2023/08/02 05:49:31;;;;;;;;;;;;;;;;;;4999317;28;19929;-91
2023/08/02 05:51:57;;;;;;;;;;;;;;;;;;4998772;28;19922;-92
2023/08/02 05:54:23;;;;;;;;;;;;;;;;;;5015171;28;19928;-92
2023/08/02 05:56:49;;;;;;;;;;;;;;;;;;4996894;28;19922;-91
2023/08/02 05:59:15;;;;;;;;;;;;;;;;;;4997119;28;20111;-92
2023/08/02 06:01:44;;;;;;;;;;;;;;;;;;4996712;28;19947;-92
2023/08/02 06:04:09;;;;;;;;;;;;;;;;;;4996406;28;19921;-92
2023/08/02 06:06:35;;;;;;;;;;;;;;;;;;5012920;28;19929;-93
2023/08/02 06:09:01;;;;;;;;;;;;;;;;;;4997791;28;19995;-93
2023/08/02 06:11:27;;;;;;;;;;;;;;;;;;4979006;28;19928;-92
2023/08/02 06:13:53;;;;;;;;;;;;;;;;;;4979028;28;19947;-92
2023/08/02 06:16:19;;;;;;;;;;;;;;;;;;4981371;28;20254;-91
2023/08/02 06:18:45;;;;;;;;;;;;;;;;;;4998596;28;19921;-92
2023/08/02 06:21:11;;;;;;;;;;;;;;;;;;4998456;28;19932;-91
2023/08/02 06:23:37;;;;;;;;;;;;;;;;;;5004217;28;19917;-91
2023/08/02 06:26:03;;;;;;;;;;;;;;;;;;5034728;28;19928;-91
2023/08/02 06:28:29;;;;;;;;;;;;;;;;;;5017674;28;19980;-90
2023/08/02 06:30:55;;;;;;;;;;;;;;;;;;5032363;28;19932;-90
2023/08/02 06:33:21;;;;;;;;;;;;;;;;;;5022532;28;19926;-90
2023/08/02 06:35:47;;;;;;;;;;;;;;;;;;4997721;28;20350;-91
2023/08/02 06:38:13;;;;;;;;;;;;;;;;;;5012171;28;20008;-91
2023/08/02 06:40:39;;;;;;;;;;;;;;;;;;4995225;28;19922;-93
2023/08/02 06:43:05;;;;;;;;;;;;;;;;;;4995701;28;19926;-91
2023/08/02 06:45:31;;;;;;;;;;;;;;;;;;4996121;28;19930;-93
2023/08/02 06:47:56;;;;;;;;;;;;;;;;;;4990465;28;19926;-93
2023/08/02 06:50:23;;;;;;;;;;;;;;;;;;4993026;28;20250;-94
2023/08/02 06:52:49;;;;;;;;;;;;;;;;;;4976316;28;19929;-93
2023/08/02 06:55:16;;;;;;;;;;;;;;;;;;4975940;28;19922;-94
2023/08/02 06:57:42;;;;;;;;;;;;;;;;;;4976325;28;19922;-93
2023/08/02 07:00:08;;;;;;;;;;;;;;;;;;4976562;28;19933;-93
2023/08/02 07:02:34;;;;;;;;;;;;;;;;;;4986521;28;19976;-93
2023/08/02 07:05:00;;;;;;;;;;;;;;;;;;5012481;28;19921;-93
2023/08/02 07:07:26;;;;;;;;;;;;;;;;;;4996464;28;19921;-94
2023/08/02 07:09:52;;;;;;;;;;;;;;;;;;4976965;28;20300;-92
2023/08/02 07:12:18;;;;;;;;;;;;;;;;;;4992171;28;19922;-93
2023/08/02 07:14:44;;;;;;;;;;;;;;;;;;4975983;28;19922;-94
2023/08/02 07:17:13;;;;;;;;;;;;;;;;;;4992293;28;20049;-92
2023/08/02 07:19:39;;;;;;;;;;;;;;;;;;4976105;28;19953;-91
2023/08/02 07:22:05;;;;;;;;;;;;;;;;;;4975916;28;19921;-91
2023/08/02 07:24:31;;;;;;;;;;;;;;;;;;4991901;28;19932;-90
2023/08/02 07:26:57;;;;;;;;;;;;;;;;;;4993246;28;19922;-90
2023/08/02 07:29:22;;;;;;;;;;;;;;;;;;4975243;28;19933;-88
2023/08/02 07:31:48;;;;;;;;;;;;;;;;;;4993767;28;19922;-93
2023/08/02 07:34:14;;;;;;;;;;;;;;;;;;4994531;28;19997;-90
2023/08/02 07:36:40;;;;;;;;;;;;;;;;;;4993479;28;20546;-90
2023/08/02 07:39:06;;;;;;;;;;;;;;;;;;4991918;28;19940;-86
2023/08/02 07:41:32;;;;;;;;;;;;;;;;;;4994030;28;19932;-90
2023/08/02 07:43:58;;;;;;;;;;;;;;;;;;5000435;28;20008;-92
2023/08/02 07:46:24;;;;;;;;;;;;;;;;;;4995699;28;20326;-92
2023/08/02 07:48:50;;;;;;;;;;;;;;;;;;4979300;28;19925;-89
2023/08/02 07:51:16;;;;;;;;;;;;;;;;;;4978778;28;19972;-89
2023/08/02 07:53:42;;;;;;;;;;;;;;;;;;4994919;28;20341;-89
2023/08/02 07:56:08;;;;;;;;;;;;;;;;;;4994965;28;19930;-89
2023/08/02 07:58:34;;;;;;;;;;;;;;;;;;4994815;28;19944;-88
2023/08/02 08:01:00;;;;;;;;;;;;;;;;;;4996024;28;20012;-88
2023/08/02 08:03:26;;;;;;;;;;;;;;;;;;4994724;28;20459;-90
2023/08/02 08:05:52;;;;;;;;;;;;;;;;;;5010178;28;19921;-89
2023/08/02 08:08:18;;;;;;;;;;;;;;;;;;5014125;28;19925;-89
2023/08/02 08:10:44;;;;;;;;;;;;;;;;;;5014064;28;19928;-88
2023/08/02 08:13:10;;;;;;;;;;;;;;;;;;4997700;28;19922;-88
2023/08/02 08:15:36;;;;;;;;;;;;;;;;;;5013888;28;20345;-89
2023/08/02 08:18:02;;;;;;;;;;;;;;;;;;5015405;28;20362;-89
2023/08/02 08:20:28;;;;;;;;;;;;;;;;;;5015416;28;19922;-89
2023/08/02 08:22:54;;;;;;;;;;;;;;;;;;5013787;28;19961;-89
2023/08/02 08:25:20;;;;;;;;;;;;;;;;;;5013788;28;20285;-90
2023/08/02 08:27:46;;;;;;;;;;;;;;;;;;5013644;28;19947;-90
2023/08/02 08:30:12;;;;;;;;;;;;;;;;;;5014037;28;19979;-89
2023/08/02 08:32:38;;;;;;;;;;;;;;;;;;4997453;28;19969;-89
2023/08/02 08:35:04;;;;;;;;;;;;;;;;;;5012326;28;19933;-89
2023/08/02 08:37:30;;;;;;;;;;;;;;;;;;5011351;28;19928;-88
2023/08/02 08:39:56;;;;;;;;;;;;;;;;;;4989594;28;19925;-88
2023/08/02 08:42:22;;;;;;;;;;;;;;;;;;5007130;28;19929;-89
2023/08/02 08:44:47;;;;;;;;;;;;;;;;;;5029650;28;20301;-89
2023/08/02 08:47:13;;;;;;;;;;;;;;;;;;5013299;28;19987;-90
2023/08/02 08:49:39;;;;;;;;;;;;;;;;;;4996697;28;19926;-87
2023/08/02 08:52:05;;;;;;;;;;;;;;;;;;5012626;28;19928;-87
2023/08/02 08:54:31;;;;;;;;;;;;;;;;;;5013180;28;19926;-86
2023/08/02 08:56:57;;;;;;;;;;;;;;;;;;5012625;28;19967;-86
2023/08/02 08:59:23;;;;;;;;;;;;;;;;;;5012822;28;19972;-88
2023/08/02 09:01:49;;;;;;;;;;;;;;;;;;5012911;28;19921;-88
2023/08/02 09:04:15;;;;;;;;;;;;;;;;;;4986635;28;19922;-88
2023/08/02 09:06:41;;;;;;;;;;;;;;;;;;4995134;28;19933;-89
2023/08/02 09:09:07;;;;;;;;;;;;;;;;;;4993312;28;19932;-89
2023/08/02 09:11:33;;;;;;;;;;;;;;;;;;4977435;28;19925;-88
2023/08/02 09:13:59;;;;;;;;;;;;;;;;;;4993393;28;19928;-87
2023/08/02 09:16:24;;;;;;;;;;;;;;;;;;4993284;28;19921;-88
2023/08/02 09:18:50;;;;;;;;;;;;;;;;;;4994697;28;20216;-88
2023/08/02 09:21:18;;;;;;;;;;;;;;;;;;4977378;28;20274;-88
2023/08/02 09:23:44;;;;;;;;;;;;;;;;;;4993449;28;20391;-89
2023/08/02 09:26:10;;;;;;;;;;;;;;;;;;4993217;28;19973;-90
2023/08/02 09:28:36;;;;;;;;;;;;;;;;;;4993135;28;19932;-89
2023/08/02 09:31:02;;;;;;;;;;;;;;;;;;4993170;28;19928;-89
2023/08/02 09:33:28;;;;;;;;;;;;;;;;;;4977067;28;19925;-88
2023/08/02 09:35:54;;;;;;;;;;;;;;;;;;4976942;28;19921;-88
2023/08/02 09:38:20;;;;;;;;;;;;;;;;;;4994115;28;19964;-88
2023/08/02 09:40:49;;;;;;;;;;;;;;;;;;4994709;28;20401;-88
2023/08/02 09:43:15;;;;;;;;;;;;;;;;;;4994953;28;19926;-90
2023/08/02 09:45:41;;;;;;;;;;;;;;;;;;4994226;28;19948;-86
2023/08/02 09:48:07;;;;;;;;;;;;;;;;;;4992534;28;20008;-88
2023/08/02 09:50:36;;;;;;;;;;;;;;;;;;4992984;28;20037;-87
2023/08/02 09:53:02;;;;;;;;;;;;;;;;;;4994110;28;20476;-88
2023/08/02 09:55:28;;;;;;;;;;;;;;;;;;4993868;28;20401;-88
2023/08/02 09:57:54;;;;;;;;;;;;;;;;;;4992394;28;20048;-88
2023/08/02 10:00:19;;;;;;;;;;;;;;;;;;4993432;28;20266;-88
2023/08/02 10:02:46;;;;;;;;;;;;;;;;;;4994418;28;19922;-88
2023/08/02 10:05:12;;;;;;;;;;;;;;;;;;4975744;28;19928;-87
2023/08/02 10:07:38;;;;;;;;;;;;;;;;;;4994695;28;19941;-88
2023/08/02 10:10:05;;;;;;;;;;;;;;;;;;4994227;28;19926;-88
2023/08/02 10:12:31;;;;;;;;;;;;;;;;;;4993418;28;20009;-87
2023/08/02 10:15:00;;;;;;;;;;;;;;;;;;4992712;28;19961;-86
2023/08/02 10:17:26;;;;;;;;;;;;;;;;;;4994699;28;19922;-87
2023/08/02 10:19:52;;;;;;;;;;;;;;;;;;4993504;28;19929;-93
2023/08/02 10:22:18;;;;;;;;;;;;;;;;;;4975680;28;20343;-87
2023/08/02 10:24:45;;;;;;;;;;;;;;;;;;4992269;28;19972;-87
2023/08/02 10:27:13;;;;;;;;;;;;;;;;;;4991583;28;19961;-87
2023/08/02 10:29:39;;;;;;;;;;;;;;;;;;4992177;28;20096;-87
2023/08/02 10:32:04;;;;;;;;;;;;;;;;;;4975870;28;20001;-87
2023/08/02 10:34:30;;;;;;;;;;;;;;;;;;4992839;28;19922;-87
2023/08/02 10:36:56;;;;;;;;;;;;;;;;;;4993070;28;19922;-87
2023/08/02 10:39:22;;;;;;;;;;;;;;;;;;4975551;28;19928;-92
2023/08/02 10:41:48;;;;;;;;;;;;;;;;;;4975828;28;20354;-86
2023/08/02 10:44:14;;;;;;;;;;;;;;;;;;4991468;28;19922;-88
2023/08/02 10:46:40;;;;;;;;;;;;;;;;;;4991406;28;20047;-87
2023/08/02 10:49:06;;;;;;;;;;;;;;;;;;4991641;28;19925;-89
2023/08/02 10:51:32;;;;;;;;;;;;;;;;;;4992778;28;19922;-89
2023/08/02 10:54:01;;;;;;;;;;;;;;;;;;4975442;28;19929;-89
2023/08/02 10:56:27;;;;;;;;;;;;;;;;;;4991868;28;20024;-88
2023/08/02 10:58:53;;;;;;;;;;;;;;;;;;4993049;28;20392;-88
2023/08/02 11:01:20;;;;;;;;;;;;;;;;;;4991520;28;19922;-88
2023/08/02 11:03:46;;;;;;;;;;;;;;;;;;4991439;28;19922;-88
2023/08/02 11:06:12;;;;;;;;;;;;;;;;;;4991381;28;19928;-89
2023/08/02 11:08:38;;;;;;;;;;;;;;;;;;4991877;28;19933;-89
2023/08/02 11:11:04;;;;;;;;;;;;;;;;;;4991948;28;19921;-89
2023/08/02 11:13:30;;;;;;;;;;;;;;;;;;4991756;28;19975;-88
2023/08/02 11:15:56;;;;;;;;;;;;;;;;;;4993540;28;19922;-89
2023/08/02 11:18:22;;;;;;;;;;;;;;;;;;4995259;28;19922;-88
2023/08/02 11:20:48;;;;;;;;;;;;;;;;;;4995313;28;19949;-91
2023/08/02 11:23:13;;;;;;;;;;;;;;;;;;4996096;28;19980;-89
2023/08/02 11:25:39;;;;;;;;;;;;;;;;;;4995038;28;19929;-89
2023/08/02 11:28:05;;;;;;;;;;;;;;;;;;4994974;28;19972;-88
2023/08/02 11:30:33;;;;;;;;;;;;;;;;;;4996631;28;20420;-88
2023/08/02 11:32:59;;;;;;;;;;;;;;;;;;4995043;28;19937;-87
2023/08/02 11:35:25;;;;;;;;;;;;;;;;;;4995346;28;20005;-87
2023/08/02 11:37:51;;;;;;;;;;;;;;;;;;4995240;28;20374;-87
2023/08/02 11:40:17;;;;;;;;;;;;;;;;;;4978377;28;19969;-86
2023/08/02 11:42:44;;;;;;;;;;;;;;;;;;4978380;28;20008;-87
2023/08/02 11:45:10;;;;;;;;;;;;;;;;;;4995171;28;19922;-87
2023/08/02 11:47:36;;;;;;;;;;;;;;;;;;4994738;28;19928;-87
2023/08/02 11:50:02;;;;;;;;;;;;;;;;;;4978281;28;19926;-86
2023/08/02 11:52:28;;;;;;;;;;;;;;;;;;4978411;28;20397;-87
2023/08/02 11:54:55;;;;;;;;;;;;;;;;;;4994600;28;19922;-88
2023/08/02 11:57:21;;;;;;;;;;;;;;;;;;4994389;28;20369;-87
2023/08/02 11:59:49;;;;;;;;;;;;;;;;;;4996213;28;19921;-88
2023/08/02 12:02:15;;;;;;;;;;;;;;;;;;4995838;28;19922;-88
2023/08/02 12:04:40;;;;;;;;;;;;;;;;;;4994645;28;20015;-86
2023/08/02 12:07:06;;;;;;;;;;;;;;;;;;4995902;28;20099;-88
2023/08/02 12:09:32;;;;;;;;;;;;;;;;;;4994471;28;19932;-88
2023/08/02 12:11:58;;;;;;;;;;;;;;;;;;4994587;28;19947;-88
2023/08/02 12:14:24;;;;;;;;;;;;;;;;;;4994424;28;20301;-89
2023/08/02 12:16:50;;;;;;;;;;;;;;;;;;4994196;28;19921;-89
2023/08/02 12:19:16;;;;;;;;;;;;;;;;;;4994599;28;19925;-88
2023/08/02 12:21:44;;;;;;;;;;;;;;;;;;4995850;28;20386;-89
2023/08/02 12:24:10;;;;;;;;;;;;;;;;;;4978560;28;20317;-88
2023/08/02 12:26:36;;;;;;;;;;;;;;;;;;4993725;28;19921;-88
2023/08/02 12:29:02;;;;;;;;;;;;;;;;;;4994107;28;19926;-87
2023/08/02 12:31:28;;;;;;;;;;;;;;;;;;4994227;28;20028;-87
2023/08/02 12:33:54;;;;;;;;;;;;;;;;;;4995580;28;19922;-87
2023/08/02 12:36:20;;;;;;;;;;;;;;;;;;4993940;28;20321;-87
2023/08/02 12:38:46;;;;;;;;;;;;;;;;;;5011223;28;19975;-89
2023/08/02 12:41:11;;;;;;;;;;;;;;;;;;5014794;28;19925;-88
2023/08/02 12:43:37;;;;;;;;;;;;;;;;;;5013771;28;20025;-88
2023/08/02 12:46:03;;;;;;;;;;;;;;;;;;4996823;28;19926;-89
2023/08/02 12:48:29;;;;;;;;;;;;;;;;;;5013638;28;19925;-89
2023/08/02 12:50:55;;;;;;;;;;;;;;;;;;5013481;28;19921;-88
2023/08/02 12:53:21;;;;;;;;;;;;;;;;;;4997503;28;20268;-89
2023/08/02 12:55:47;;;;;;;;;;;;;;;;;;5013606;28;20012;-89
2023/08/02 12:58:13;;;;;;;;;;;;;;;;;;5013075;28;19935;-87
2023/08/02 13:00:39;;;;;;;;;;;;;;;;;;5013077;28;19972;-88
2023/08/02 13:03:05;;;;;;;;;;;;;;;;;;4997063;28;20337;-88
2023/08/02 13:05:31;;;;;;;;;;;;;;;;;;5013285;28;19965;-88
2023/08/02 13:07:57;;;;;;;;;;;;;;;;;;5014568;28;19928;-89
2023/08/02 13:10:23;;;;;;;;;;;;;;;;;;5013260;28;19969;-88
2023/08/02 13:12:49;;;;;;;;;;;;;;;;;;5014242;28;19948;-88
2023/08/02 13:15:15;;;;;;;;;;;;;;;;;;4996191;28;19967;-89
2023/08/02 13:17:42;;;;;;;;;;;;;;;;;;5013601;28;19997;-90
2023/08/02 13:20:09;;;;;;;;;;;;;;;;;;5012895;28;20516;-90
2023/08/02 13:22:35;;;;;;;;;;;;;;;;;;5012931;28;19921;-90
2023/08/02 13:25:19;;;;;;;;;;;;;;;;;;5018348;28;19933;-95
2023/08/02 13:27:45;;;;;;;;;;;;;;;;;;4997576;28;20024;-90
2023/08/02 13:30:11;;;;;;;;;;;;;;;;;;5013652;28;20373;-90
2023/08/02 13:32:37;;;;;;;;;;;;;;;;;;5012974;28;19965;-89
2023/08/02 13:35:03;;;;;;;;;;;;;;;;;;4995466;28;19964;-90
2023/08/02 13:37:29;;;;;;;;;;;;;;;;;;5012487;28;19929;-92
2023/08/02 13:39:55;;;;;;;;;;;;;;;;;;5012635;28;19926;-89
2023/08/02 13:42:23;;;;;;;;;;;;;;;;;;5012006;28;19940;-90
2023/08/02 13:44:49;;;;;;;;;;;;;;;;;;5012321;28;19944;-90
2023/08/02 13:47:15;;;;;;;;;;;;;;;;;;4995811;28;20393;-89
2023/08/02 13:49:41;;;;;;;;;;;;;;;;;;4996046;28;19971;-89
2023/08/02 13:52:06;;;;;;;;;;;;;;;;;;5012534;28;19979;-89
2023/08/02 13:54:32;;;;;;;;;;;;;;;;;;5011895;28;20008;-88
2023/08/02 13:56:58;;;;;;;;;;;;;;;;;;5012102;28;19925;-89
2023/08/02 13:59:24;;;;;;;;;;;;;;;;;;5012377;28;19926;-88
2023/08/02 14:01:50;;;;;;;;;;;;;;;;;;5012078;28;20337;-89
2023/08/02 14:04:16;;;;;;;;;;;;;;;;;;4994692;28;19928;-88
2023/08/02 14:06:42;;;;;;;;;;;;;;;;;;4995326;28;19932;-89
2023/08/02 14:09:09;;;;;;;;;;;;;;;;;;5011882;28;19922;-88
2023/08/02 14:11:36;;;;;;;;;;;;;;;;;;5011404;28;19921;-89
2023/08/02 14:14:02;;;;;;;;;;;;;;;;;;5012038;28;19933;-89
2023/08/02 14:16:27;;;;;;;;;;;;;;;;;;5012203;28;19990;-88
2023/08/02 14:18:53;;;;;;;;;;;;;;;;;;5013185;28;19921;-88
2023/08/02 14:21:19;;;;;;;;;;;;;;;;;;5011805;28;19921;-88
2023/08/02 14:23:45;;;;;;;;;;;;;;;;;;5011654;28;19968;-90
2023/08/02 14:26:11;;;;;;;;;;;;;;;;;;5011712;28;19921;-90
2023/08/02 14:28:37;;;;;;;;;;;;;;;;;;5011732;28;20284;-90
2023/08/02 14:31:03;;;;;;;;;;;;;;;;;;4995242;28;19926;-89
2023/08/02 14:33:29;;;;;;;;;;;;;;;;;;4995780;28;19928;-89
2023/08/02 14:35:55;;;;;;;;;;;;;;;;;;5011628;28;19929;-89
2023/08/02 14:38:21;;;;;;;;;;;;;;;;;;5013466;28;19925;-93
2023/08/02 14:40:47;;;;;;;;;;;;;;;;;;4994935;28;19932;-89
2023/08/02 14:43:13;;;;;;;;;;;;;;;;;;5011795;28;20004;-90
2023/08/02 14:45:38;;;;;;;;;;;;;;;;;;5011336;28;19996;-89
2023/08/02 14:48:04;;;;;;;;;;;;;;;;;;5012808;28;20281;-89
2023/08/02 14:50:30;;;;;;;;;;;;;;;;;;5011024;28;19972;-89
2023/08/02 14:52:56;;;;;;;;;;;;;;;;;;5011304;28;20439;-89
2023/08/02 14:55:22;;;;;;;;;;;;;;;;;;4994886;28;19925;-89
2023/08/02 14:57:48;;;;;;;;;;;;;;;;;;5012587;28;19967;-89
2023/08/02 15:00:14;;;;;;;;;;;;;;;;;;5012720;28;19925;-90
2023/08/02 15:02:40;;;;;;;;;;;;;;;;;;5011534;28;19929;-89
2023/08/02 15:05:06;;;;;;;;;;;;;;;;;;4994919;28;20201;-89
2023/08/02 15:07:32;;;;;;;;;;;;;;;;;;5010816;28;20428;-89
2023/08/02 15:09:58;;;;;;;;;;;;;;;;;;5011400;28;20004;-89
2023/08/02 15:12:24;;;;;;;;;;;;;;;;;;5010870;28;19922;-89
2023/08/02 15:14:50;;;;;;;;;;;;;;;;;;4995068;28;20334;-90
2023/08/02 15:17:16;;;;;;;;;;;;;;;;;;4995576;28;20072;-89
2023/08/02 15:19:42;;;;;;;;;;;;;;;;;;5011245;28;19933;-90
2023/08/02 15:22:07;;;;;;;;;;;;;;;;;;4994509;28;20012;-90
2023/08/02 15:24:33;;;;;;;;;;;;;;;;;;5010888;28;19921;-90
2023/08/02 15:26:59;;;;;;;;;;;;;;;;;;5013511;28;19926;-92
2023/08/02 15:29:25;;;;;;;;;;;;;;;;;;5011427;28;19921;-92
2023/08/02 15:31:51;;;;;;;;;;;;;;;;;;5012786;28;19926;-92
2023/08/02 15:34:17;;;;;;;;;;;;;;;;;;5011471;28;20016;-92
2023/08/02 15:36:43;;;;;;;;;;;;;;;;;;4994913;28;20373;-92
2023/08/02 15:39:09;;;;;;;;;;;;;;;;;;4994755;28;20277;-92
2023/08/02 15:41:35;;;;;;;;;;;;;;;;;;5011366;28;19941;-92
2023/08/02 15:44:01;;;;;;;;;;;;;;;;;;5011248;28;19925;-92
2023/08/02 15:46:27;;;;;;;;;;;;;;;;;;5011359;28;19933;-92
2023/08/02 15:48:53;;;;;;;;;;;;;;;;;;5011301;28;19922;-92
2023/08/02 15:51:19;;;;;;;;;;;;;;;;;;4995249;28;19944;-92
2023/08/02 15:53:46;;;;;;;;;;;;;;;;;;5012648;28;19929;-92
2023/08/02 15:56:12;;;;;;;;;;;;;;;;;;4994161;28;19921;-92
2023/08/02 15:58:41;;;;;;;;;;;;;;;;;;5010893;28;19921;-91
2023/08/02 16:01:06;;;;;;;;;;;;;;;;;;5010781;28;20404;-90
2023/08/02 16:03:39;;;;;;;;;;;;;;;;;;5013694;28;19922;-92
2023/08/02 16:06:08;;;;;;;;;;;;;;;;;;5014478;28;20025;-92
2023/08/02 16:08:34;;;;;;;;;;;;;;;;;;4997860;28;20024;-91
2023/08/02 16:10:59;;;;;;;;;;;;;;;;;;5015772;28;20012;-92
2023/08/02 16:13:26;;;;;;;;;;;;;;;;;;4998063;28;19922;-92
2023/08/02 16:15:51;;;;;;;;;;;;;;;;;;4997924;28;19967;-91
2023/08/02 16:18:17;;;;;;;;;;;;;;;;;;5014351;28;19965;-91
2023/08/02 16:20:43;;;;;;;;;;;;;;;;;;5014389;28;19976;-92
2023/08/02 16:23:09;;;;;;;;;;;;;;;;;;5014538;28;20437;-93
2023/08/02 16:25:35;;;;;;;;;;;;;;;;;;4998023;28;19984;-93
2023/08/02 16:28:01;;;;;;;;;;;;;;;;;;5012721;28;19973;-91
2023/08/02 16:30:27;;;;;;;;;;;;;;;;;;4997051;28;19947;-90
2023/08/02 16:32:53;;;;;;;;;;;;;;;;;;5015285;28;19922;-91
2023/08/02 16:35:22;;;;;;;;;;;;;;;;;;4996050;28;20357;-91
2023/08/02 16:37:48;;;;;;;;;;;;;;;;;;5013790;28;19921;-91